Time;durP1;ratioP1;P1;durP2;ratioP2;P2;SDS_P1;SDS_P2;PMS_P1;PMS_P2;Temp;Humidity;BMP_temperature;BMP_pressure;BME280_temperature;BME280_humidity;BME280_pressure;Samples;Min_cycle;Max_cycle;Signal;HPM_P1;HPM_P2
2023/02/24 00:01:05;;;;;;;140.97;63.23;;;8.80;99.90;;;;;;5012447;28;20437;-74
2023/02/24 00:03:31;;;;;;;113.87;26.37;;;8.80;99.90;;;;;;5004718;28;20205;-74
2023/02/24 00:05:57;;;;;;;124.47;26.57;;;8.90;99.90;;;;;;5012054;28;20783;-74
2023/02/24 00:08:23;;;;;;;114.50;24.97;;;8.90;99.90;;;;;;5012090;28;20190;-74
2023/02/24 00:10:48;;;;;;;113.33;24.90;;;8.90;99.90;;;;;;5010756;28;21027;-74
2023/02/24 00:13:17;;;;;;;111.07;26.10;;;8.90;99.90;;;;;;5012087;28;20186;-74
2023/02/24 00:15:42;;;;;;;111.97;26.70;;;8.90;99.90;;;;;;5012086;28;20217;-74
2023/02/24 00:18:08;;;;;;;113.97;25.40;;;8.90;99.90;;;;;;5011921;28;20495;-74
2023/02/24 00:20:33;;;;;;;115.30;26.00;;;9.00;99.90;;;;;;5002770;28;20711;-74
2023/02/24 00:22:59;;;;;;;125.07;28.23;;;9.00;99.90;;;;;;5004137;28;20260;-74
2023/02/24 00:25:25;;;;;;;120.10;28.10;;;9.00;99.90;;;;;;5011868;28;20174;-73
2023/02/24 00:27:54;;;;;;;120.63;28.80;;;9.00;99.90;;;;;;5011413;28;20255;-74
2023/02/24 00:30:22;;;;;;;115.57;25.47;;;9.10;99.90;;;;;;5011762;28;20186;-74
2023/02/24 00:32:48;;;;;;;112.80;24.80;;;9.10;99.90;;;;;;5001969;28;20460;-75
2023/02/24 00:35:14;;;;;;;119.63;27.50;;;9.10;99.90;;;;;;4997682;28;20528;-74
2023/02/24 00:37:39;;;;;;;119.70;28.13;;;9.10;99.90;;;;;;5002979;28;20821;-73
2023/02/24 00:40:10;;;;;;;120.57;28.27;;;9.10;99.90;;;;;;4992450;28;20209;-74
2023/02/24 00:42:36;;;;;;;124.83;30.20;;;9.10;99.90;;;;;;4992508;28;20247;-73
2023/02/24 00:45:06;;;;;;;120.00;28.80;;;9.10;99.90;;;;;;4992280;28;20524;-74
2023/02/24 00:47:37;;;;;;;118.23;28.20;;;9.10;99.90;;;;;;5008086;28;20420;-74
2023/02/24 00:50:04;;;;;;;227.00;133.23;;;9.00;99.90;;;;;;5003680;28;20904;-74
2023/02/24 00:52:29;;;;;;;122.90;28.57;;;9.10;99.90;;;;;;5011812;28;20811;-75
2023/02/24 00:54:55;;;;;;;122.77;29.43;;;9.00;99.90;;;;;;5011683;28;20429;-74
2023/02/24 00:57:20;;;;;;;140.20;32.50;;;9.00;99.90;;;;;;4997318;28;20697;-74
2023/02/24 00:59:46;;;;;;;126.63;28.73;;;9.10;99.90;;;;;;4992082;28;20178;-74
2023/02/24 01:02:12;;;;;;;118.63;30.20;;;9.00;99.90;;;;;;4991917;28;20205;-74
2023/02/24 01:04:38;;;;;;;114.97;28.73;;;9.00;99.90;;;;;;4992333;28;20190;-74
2023/02/24 01:07:09;;;;;;;120.10;28.37;;;9.10;99.90;;;;;;5003605;28;20471;-74
2023/02/24 01:09:36;;;;;;;123.77;29.57;;;9.00;99.90;;;;;;5011483;28;20541;-74
2023/02/24 01:14:46;;;;;;;119.50;29.73;;;9.00;99.90;;;;;;5003643;28;20419;-74
2023/02/24 01:17:13;;;;;;;116.60;27.20;;;9.00;99.90;;;;;;5011110;28;20429;-75
2023/02/24 01:19:39;;;;;;;116.33;27.33;;;9.00;99.90;;;;;;5011281;28;20434;-74
2023/02/24 01:22:08;;;;;;;125.97;28.47;;;9.00;99.90;;;;;;5010610;28;20484;-77
2023/02/24 01:24:36;;;;;;;114.20;27.80;;;9.00;99.90;;;;;;5011418;28;20451;-74
2023/02/24 01:27:03;;;;;;;119.57;29.20;;;9.00;99.90;;;;;;5011033;28;20781;-75
2023/02/24 01:29:28;;;;;;;118.90;27.73;;;9.00;99.90;;;;;;5011247;28;20950;-74
2023/02/24 01:32:01;;;;;;;111.30;28.47;;;8.90;99.90;;;;;;5010872;28;20464;-74
2023/02/24 01:34:27;;;;;;;114.60;26.47;;;8.90;99.90;;;;;;5004773;28;20563;-74
2023/02/24 01:36:53;;;;;;;117.00;27.27;;;8.90;99.90;;;;;;5009874;28;20459;-74
2023/02/24 01:39:19;;;;;;;109.43;25.37;;;8.90;99.90;;;;;;5012895;28;20921;-74
2023/02/24 01:41:46;;;;;;;111.37;26.00;;;8.90;99.90;;;;;;5014787;28;20468;-74
2023/02/24 01:44:12;;;;;;;117.97;27.23;;;8.90;99.90;;;;;;5014794;28;20836;-74
2023/02/24 01:46:40;;;;;;;109.10;26.90;;;8.90;99.90;;;;;;5014647;28;20768;-74
2023/02/24 01:49:18;;;;;;;116.93;26.83;;;8.90;99.90;;;;;;5003072;28;20420;-74
2023/02/24 01:51:48;;;;;;;111.40;27.83;;;8.90;99.90;;;;;;5004014;28;20449;-73
2023/02/24 01:54:17;;;;;;;112.83;27.70;;;8.90;99.90;;;;;;5014490;28;20419;-74
2023/02/24 01:56:46;;;;;;;123.80;30.37;;;8.90;99.90;;;;;;5014476;28;20417;-74
2023/02/24 01:59:11;;;;;;;114.00;27.00;;;8.90;99.90;;;;;;5014156;28;20633;-73
2023/02/24 03:32:21;;;;;;;125.93;31.37;;;8.50;99.90;;;;;;5254437;22;20850;-75
2023/02/24 03:34:51;;;;;;;128.33;32.17;;;8.50;99.90;;;;;;5040311;28;20852;-75
2023/02/24 03:37:24;;;;;;;122.53;29.40;;;8.50;99.90;;;;;;5043212;28;20512;-77
2023/02/24 03:39:52;;;;;;;120.70;28.73;;;8.50;99.90;;;;;;5035156;28;20864;-75
2023/02/24 03:42:19;;;;;;;121.57;29.37;;;8.50;99.90;;;;;;5043401;28;20455;-75
2023/02/24 03:44:44;;;;;;;138.80;32.33;;;8.50;99.90;;;;;;5035823;28;20440;-75
2023/02/24 03:47:11;;;;;;;133.80;30.53;;;8.50;99.90;;;;;;5043005;28;20429;-76
2023/02/24 03:49:37;;;;;;;127.07;31.60;;;8.50;99.90;;;;;;5043127;28;20191;-75
2023/02/24 03:52:08;;;;;;;127.07;32.50;;;8.50;99.90;;;;;;5035024;28;20446;-75
2023/02/24 03:54:59;;;;;;;123.27;30.77;;;8.60;99.90;;;;;;5043280;28;20542;-76
2023/02/24 03:57:54;;;;;;;128.37;31.40;;;8.60;99.90;;;;;;5030544;28;20961;-75
2023/02/24 04:00:24;;;;;;;130.20;33.93;;;8.60;99.90;;;;;;5037505;28;20422;-75
2023/02/24 04:02:58;;;;;;;124.43;31.37;;;8.60;99.90;;;;;;5034072;28;20433;-77
2023/02/24 04:05:27;;;;;;;134.23;32.77;;;8.60;99.90;;;;;;5038427;28;20434;-75
2023/02/24 04:08:00;;;;;;;136.40;34.60;;;8.50;99.90;;;;;;5031144;28;20419;-76
2023/02/24 04:10:56;;;;;;;132.37;34.13;;;8.50;99.90;;;;;;5031542;28;20454;-76
2023/02/24 04:13:53;;;;;;;139.13;36.60;;;8.50;99.90;;;;;;5029614;28;20417;-77
2023/02/24 04:16:28;;;;;;;136.80;34.97;;;8.50;99.90;;;;;;5047207;28;20427;-78
2023/02/24 04:19:08;;;;;;;143.63;36.00;;;8.50;99.90;;;;;;5041701;28;20466;-76
2023/02/24 04:21:36;;;;;;;143.43;35.80;;;8.50;99.90;;;;;;5037571;28;20442;-77
2023/02/24 04:24:10;;;;;;;141.90;36.50;;;8.50;99.90;;;;;;5032658;28;20779;-76
2023/02/24 04:26:39;;;;;;;137.60;35.33;;;8.50;99.90;;;;;;5045918;28;20485;-77
2023/02/24 04:29:06;;;;;;;137.23;35.80;;;8.40;99.90;;;;;;5042544;28;20430;-76
2023/02/24 04:31:33;;;;;;;147.10;37.40;;;8.40;99.90;;;;;;5044676;28;20471;-76
2023/02/24 04:33:59;;;;;;;146.80;36.33;;;8.30;99.90;;;;;;5047451;28;20434;-75
2023/02/24 04:36:24;;;;;;;143.80;37.33;;;8.30;99.90;;;;;;5031160;28;20426;-76
2023/02/24 04:38:50;;;;;;;148.20;37.53;;;8.40;99.90;;;;;;5047147;28;20822;-75
2023/02/24 04:41:19;;;;;;;143.87;36.70;;;8.40;99.90;;;;;;5047005;28;20685;-77
2023/02/24 04:43:47;;;;;;;142.87;35.73;;;8.40;99.90;;;;;;5031014;28;20421;-75
2023/02/24 04:46:12;;;;;;;148.07;37.70;;;8.30;99.90;;;;;;5034214;28;20472;-76
2023/02/24 04:48:38;;;;;;;148.10;37.50;;;8.30;99.90;;;;;;5050515;28;20872;-75
2023/02/24 04:51:05;;;;;;;146.67;36.80;;;8.30;99.90;;;;;;5040514;28;20689;-75
2023/02/24 04:53:31;;;;;;;159.30;39.00;;;8.30;99.90;;;;;;5030934;28;20239;-74
2023/02/24 04:56:00;;;;;;;143.87;37.20;;;8.30;99.90;;;;;;5048172;28;20434;-75
2023/02/24 04:58:28;;;;;;;143.13;36.07;;;8.30;99.90;;;;;;5050470;28;20271;-76
2023/02/24 05:00:54;;;;;;;148.70;37.10;;;8.30;99.90;;;;;;5050327;28;20485;-76
2023/02/24 05:03:22;;;;;;;144.23;35.33;;;8.30;99.90;;;;;;5046442;28;20475;-76
2023/02/24 05:05:50;;;;;;;148.67;37.40;;;8.30;99.90;;;;;;5031001;28;20179;-76
2023/02/24 05:08:17;;;;;;;148.20;37.50;;;8.30;99.90;;;;;;5030909;28;20420;-78
2023/02/24 05:10:44;;;;;;;150.97;37.30;;;8.30;99.90;;;;;;5037893;28;20790;-76
2023/02/24 05:13:14;;;;;;;144.20;36.47;;;8.30;99.90;;;;;;5046938;28;20458;-74
2023/02/24 05:15:41;;;;;;;147.57;37.47;;;8.20;99.90;;;;;;5040160;28;20419;-75
2023/02/24 05:18:13;;;;;;;151.83;37.10;;;8.20;99.90;;;;;;5043972;28;20480;-75
2023/02/24 05:23:40;;;;;;;155.67;39.40;;;8.20;99.90;;;;;;5028339;28;20417;-75
2023/02/24 05:26:09;;;;;;;163.63;40.40;;;8.10;99.90;;;;;;5053248;28;20418;-75
2023/02/24 05:28:39;;;;;;;158.87;41.53;;;8.10;99.90;;;;;;5054375;28;20504;-76
2023/02/24 05:31:09;;;;;;;147.40;37.47;;;8.10;99.90;;;;;;5052257;28;20998;-76
2023/02/24 05:33:36;;;;;;;147.43;40.47;;;8.20;99.90;;;;;;5034469;28;20439;-75
2023/02/24 05:36:05;;;;;;;144.87;36.40;;;8.20;99.90;;;;;;5034101;28;20423;-76
2023/02/24 05:38:31;;;;;;;150.37;38.20;;;8.20;99.90;;;;;;5034294;28;20654;-76
2023/02/24 05:41:04;;;;;;;147.73;39.43;;;8.20;99.90;;;;;;5034182;28;20953;-76
2023/02/24 05:43:30;;;;;;;196.03;81.70;;;8.20;99.90;;;;;;5034368;28;20548;-76
2023/02/24 05:46:02;;;;;;;247.57;153.97;;;8.20;99.90;;;;;;5034037;28;20781;-76
2023/02/24 05:48:27;;;;;;;160.63;39.83;;;8.20;99.90;;;;;;5034178;28;20432;-76
2023/02/24 05:50:53;;;;;;;147.13;37.10;;;8.20;99.90;;;;;;5050258;28;20442;-75
2023/02/24 05:53:19;;;;;;;152.10;39.77;;;8.20;99.90;;;;;;5030033;28;20267;-76
2023/02/24 05:55:45;;;;;;;151.70;38.30;;;8.20;99.90;;;;;;5053727;28;20469;-76
2023/02/24 05:58:10;;;;;;;157.87;38.30;;;8.20;99.90;;;;;;5053391;28;20474;-75
2023/02/24 06:00:38;;;;;;;153.73;39.10;;;8.20;99.90;;;;;;5053626;28;20186;-76
2023/02/24 06:03:16;;;;;;;164.10;40.83;;;8.20;99.90;;;;;;5053559;28;20176;-75
2023/02/24 06:05:42;;;;;;;166.37;41.37;;;8.20;99.90;;;;;;5053652;28;20409;-76
2023/02/24 06:08:10;;;;;;;151.93;38.57;;;8.20;99.90;;;;;;5053143;28;20433;-76
2023/02/24 06:10:39;;;;;;;161.90;40.77;;;8.20;99.90;;;;;;5053301;28;20430;-74
2023/02/24 06:13:05;;;;;;;158.53;40.43;;;8.20;99.90;;;;;;5053336;28;20781;-74
2023/02/24 06:15:32;;;;;;;163.07;41.43;;;8.20;99.90;;;;;;5053005;28;20761;-73
2023/02/24 06:17:59;;;;;;;160.27;40.57;;;8.20;99.90;;;;;;5052968;28;21012;-74
2023/02/24 06:20:26;;;;;;;161.47;40.17;;;8.20;99.90;;;;;;5048525;28;20890;-74
2023/02/24 06:22:56;;;;;;;160.70;38.00;;;8.30;99.90;;;;;;5053031;28;20434;-75
2023/02/24 06:25:24;;;;;;;150.30;37.93;;;8.30;99.90;;;;;;5052824;28;20410;-75
2023/02/24 06:27:53;;;;;;;165.73;40.93;;;8.20;99.90;;;;;;5053055;28;20462;-74
2023/02/24 06:30:21;;;;;;;166.03;41.10;;;8.20;99.90;;;;;;5052770;28;20469;-77
2023/02/24 06:32:47;;;;;;;165.23;43.90;;;8.30;99.90;;;;;;5052579;28;20956;-74
2023/02/24 06:35:12;;;;;;;160.30;38.90;;;8.30;99.90;;;;;;5052739;28;20966;-74
2023/02/24 06:37:38;;;;;;;162.00;42.17;;;8.30;99.90;;;;;;5052549;28;20456;-73
2023/02/24 06:40:14;;;;;;;157.90;39.63;;;8.30;99.90;;;;;;5052428;28;20186;-74
2023/02/24 06:42:47;;;;;;;161.57;40.77;;;8.30;99.90;;;;;;5051861;28;20248;-75
2023/02/24 06:45:14;;;;;;;174.60;42.53;;;8.30;99.90;;;;;;5051700;28;20510;-74
2023/02/24 06:47:41;;;;;;;168.50;41.50;;;8.20;99.90;;;;;;5037125;28;20404;-76
2023/02/24 06:50:11;;;;;;;155.17;39.23;;;8.20;99.90;;;;;;5033109;28;20426;-74
2023/02/24 06:52:37;;;;;;;159.90;41.50;;;8.20;99.90;;;;;;5036680;28;20660;-74
2023/02/24 06:55:04;;;;;;;171.07;41.57;;;8.20;99.90;;;;;;5042670;28;20557;-75
2023/02/24 06:57:33;;;;;;;180.37;42.10;;;8.20;99.90;;;;;;5031708;28;20551;-72
2023/02/24 07:00:15;;;;;;;174.50;42.63;;;8.20;99.90;;;;;;5049064;28;20457;-72
2023/02/24 07:02:40;;;;;;;172.87;44.47;;;8.20;99.90;;;;;;5052278;28;20525;-72
2023/02/24 07:05:13;;;;;;;175.67;43.43;;;8.20;99.90;;;;;;5051847;28;20499;-72
2023/02/24 07:07:44;;;;;;;172.47;41.80;;;8.10;99.90;;;;;;5052104;28;20648;-72
2023/02/24 07:10:14;;;;;;;175.47;42.03;;;8.10;99.90;;;;;;5051044;28;20972;-72
2023/02/24 07:12:40;;;;;;;173.93;41.50;;;8.10;99.90;;;;;;5050817;28;20528;-72
2023/02/24 07:15:07;;;;;;;173.17;42.73;;;8.10;99.90;;;;;;5049844;28;20508;-74
2023/02/24 07:17:33;;;;;;;173.40;45.23;;;8.20;99.90;;;;;;5052301;28;20199;-73
2023/02/24 07:20:09;;;;;;;165.23;40.13;;;8.20;99.90;;;;;;5051787;28;20477;-73
2023/02/24 07:22:35;;;;;;;167.20;41.40;;;8.30;99.90;;;;;;5035803;28;20196;-74
2023/02/24 07:25:00;;;;;;;167.13;40.97;;;8.30;99.90;;;;;;5051834;28;20789;-71
2023/02/24 07:27:26;;;;;;;190.57;44.90;;;8.30;99.90;;;;;;5052077;28;20180;-75
2023/02/24 07:29:52;;;;;;;173.97;40.97;;;8.30;99.90;;;;;;5052021;28;20238;-73
2023/02/24 07:32:21;;;;;;;179.77;42.60;;;8.30;99.90;;;;;;5051794;28;20310;-73
2023/02/24 07:34:46;;;;;;;174.27;43.37;;;8.30;99.90;;;;;;5050592;28;21056;-75
2023/02/24 07:37:12;;;;;;;170.13;44.10;;;8.30;99.90;;;;;;5051319;28;20413;-73
2023/02/24 07:39:38;;;;;;;186.17;44.30;;;8.30;99.90;;;;;;5051499;28;20236;-74
2023/02/24 07:42:07;;;;;;;170.10;41.97;;;8.30;99.90;;;;;;5051675;28;20566;-74
2023/02/24 07:44:32;;;;;;;174.47;41.40;;;8.30;99.90;;;;;;5051774;28;20449;-74
2023/02/24 07:46:59;;;;;;;191.47;44.63;;;8.30;99.90;;;;;;5051767;28;20454;-74
2023/02/24 07:49:26;;;;;;;180.43;41.93;;;8.30;99.90;;;;;;5051436;28;20709;-73
2023/02/24 07:51:56;;;;;;;160.93;38.03;;;8.30;99.90;;;;;;5044576;28;20817;-74
2023/02/24 07:54:24;;;;;;;170.50;42.57;;;8.30;99.90;;;;;;5031856;28;20928;-74
2023/02/24 07:56:57;;;;;;;177.47;43.90;;;8.30;99.90;;;;;;5030714;28;20435;-74
2023/02/24 07:59:26;;;;;;;170.27;40.70;;;8.30;99.90;;;;;;5031565;28;20478;-74
2023/02/24 08:01:54;;;;;;;170.60;42.90;;;8.40;99.90;;;;;;5031918;28;20483;-73
2023/02/24 08:04:22;;;;;;;158.63;35.10;;;8.40;99.90;;;;;;5030474;28;21172;-74
2023/02/24 08:06:55;;;;;;;160.03;37.30;;;8.40;99.90;;;;;;5031966;28;20814;-73
2023/02/24 08:12:16;;;;;;;151.37;35.00;;;8.50;99.90;;;;;;5031728;28;20438;-75
2023/02/24 08:14:43;;;;;;;137.40;32.47;;;8.60;99.90;;;;;;5031640;28;20445;-74
2023/02/24 08:17:10;;;;;;;143.90;33.90;;;8.70;99.90;;;;;;5031616;28;20416;-74
2023/02/24 08:19:39;;;;;;;285.30;181.10;;;8.80;99.90;;;;;;5031328;28;20998;-74
2023/02/24 08:22:19;;;;;;;161.80;37.77;;;8.90;99.90;;;;;;5031797;28;20441;-74
2023/02/24 08:24:52;;;;;;;153.07;35.57;;;9.00;99.90;;;;;;5031583;28;20411;-74
2023/02/24 08:27:23;;;;;;;158.23;36.43;;;9.00;99.90;;;;;;5050303;28;20418;-76
2023/02/24 08:29:58;;;;;;;152.97;35.30;;;9.00;99.90;;;;;;5051256;28;20473;-73
2023/02/24 08:32:42;;;;;;;150.03;36.10;;;9.10;99.90;;;;;;5049682;28;20829;-75
2023/02/24 08:35:14;;;;;;;153.43;33.90;;;9.20;99.90;;;;;;5050768;28;20774;-74
2023/02/24 08:37:45;;;;;;;138.60;34.10;;;9.30;99.90;;;;;;5051085;28;21019;-74
2023/02/24 08:43:15;;;;;;;143.87;35.47;;;9.40;99.90;;;;;;5051231;28;20423;-74
2023/02/24 08:45:44;;;;;;;141.50;33.63;;;9.40;99.90;;;;;;5030158;28;20522;-74
2023/02/24 08:48:24;;;;;;;146.63;34.47;;;9.30;99.90;;;;;;5049454;28;20427;-74
2023/02/24 08:51:01;;;;;;;149.03;34.83;;;9.40;99.90;;;;;;5050776;28;20544;-73
2023/02/24 08:53:30;;;;;;;139.00;34.43;;;9.60;99.90;;;;;;5050298;28;20441;-74
2023/02/24 08:55:57;;;;;;;143.57;35.23;;;9.70;99.90;;;;;;5050752;28;20934;-74
2023/02/24 08:58:25;;;;;;;184.87;52.00;;;9.70;99.90;;;;;;5050207;28;20468;-74
2023/02/24 09:00:53;;;;;;;168.90;87.07;;;10.00;99.90;;;;;;5050629;28;20438;-74
2023/02/24 09:03:27;;;;;;;137.33;33.57;;;10.00;99.90;;;;;;5042260;28;20428;-73
2023/02/24 09:06:05;;;;;;;134.17;32.17;;;10.10;99.90;;;;;;5050654;28;20903;-74
2023/02/24 09:08:33;;;;;;;141.83;39.77;;;10.10;99.90;;;;;;5022980;28;20414;-73
2023/02/24 09:11:08;;;;;;;208.57;136.07;;;10.20;99.90;;;;;;5031250;28;20944;-74
2023/02/24 09:13:50;;;;;;;180.60;90.80;;;10.30;99.90;;;;;;5023339;28;20427;-75
2023/02/24 09:16:22;;;;;;;186.97;103.50;;;10.40;99.90;;;;;;5030813;28;20463;-74
2023/02/24 09:19:25;;;;;;;191.90;109.53;;;10.50;99.90;;;;;;5030632;28;20474;-74
2023/02/24 09:24:25;;;;;;;172.07;53.83;;;10.50;99.90;;;;;;5031676;28;20493;-73
2023/02/24 09:26:57;;;;;;;158.73;42.23;;;10.40;99.90;;;;;;5045810;28;20415;-75
2023/02/24 09:29:47;;;;;;;155.70;36.17;;;10.30;99.90;;;;;;5050599;28;20466;-73
2023/02/24 09:32:13;;;;;;;149.90;32.20;;;10.30;99.90;;;;;;5050261;28;20512;-76
2023/02/24 09:34:43;;;;;;;136.27;30.07;;;10.40;99.90;;;;;;5050682;28;20477;-73
2023/02/24 09:37:25;;;;;;;138.37;28.87;;;10.40;99.90;;;;;;5050284;28;20416;-74
2023/02/24 09:42:28;;;;;;;135.83;28.83;;;10.50;99.90;;;;;;5040504;28;20448;-74
2023/02/24 09:44:56;;;;;;;137.10;27.90;;;10.80;99.90;;;;;;5037365;28;20780;-74
2023/02/24 09:47:38;;;;;;;126.87;26.70;;;10.90;99.90;;;;;;5042168;28;20988;-75
2023/02/24 09:50:18;;;;;;;132.70;28.13;;;11.30;99.90;;;;;;5050683;28;20838;-74
2023/02/24 09:52:49;;;;;;;126.60;25.40;;;11.60;99.90;;;;;;5023252;28;20440;-74
2023/02/24 09:55:34;;;;;;;122.53;23.57;;;11.70;99.90;;;;;;5047872;28;20419;-74
2023/02/24 10:01:29;;;;;;;128.00;24.50;;;11.60;99.90;;;;;;5026746;28;20502;-73
2023/02/24 10:04:05;;;;;;;117.30;21.60;;;11.70;99.90;;;;;;5028791;28;20464;-75
2023/02/24 10:06:39;;;;;;;111.67;20.93;;;11.60;99.90;;;;;;5053716;28;20501;-74
2023/02/24 10:09:20;;;;;;;116.40;23.10;;;11.60;99.90;;;;;;5053680;28;20419;-72
2023/02/24 10:11:54;;;;;;;108.77;21.03;;;11.50;99.90;;;;;;5027762;28;20440;-75
2023/02/24 10:14:42;;;;;;;106.03;17.07;;;11.50;99.90;;;;;;5033978;28;20424;-73
2023/02/24 10:17:23;;;;;;;103.20;16.70;;;11.40;99.90;;;;;;5033918;28;20427;-76
2023/02/24 10:20:12;;;;;;;103.73;15.40;;;11.50;99.90;;;;;;5027786;28;20421;-73
2023/02/24 10:22:51;;;;;;;104.67;16.63;;;11.50;99.90;;;;;;5024423;28;20440;-74
2023/02/24 10:25:34;;;;;;;99.70;16.03;;;11.50;99.90;;;;;;5033567;28;20419;-74
2023/02/24 10:28:18;;;;;;;103.93;15.83;;;11.60;99.90;;;;;;5033583;28;20408;-74
2023/02/24 10:31:02;;;;;;;108.70;17.57;;;11.60;99.90;;;;;;5026670;28;20513;-73
2023/02/24 10:33:44;;;;;;;108.37;17.90;;;11.40;99.90;;;;;;5033313;28;20431;-74
2023/02/24 10:36:34;;;;;;;111.23;18.50;;;11.20;99.90;;;;;;5033488;28;20417;-75
2023/02/24 10:39:07;;;;;;;149.33;34.30;;;11.10;99.90;;;;;;5028689;28;20464;-75
2023/02/24 10:41:44;;;;;;;116.43;21.40;;;11.10;99.90;;;;;;5033143;28;20969;-73
2023/02/24 10:44:10;;;;;;;129.43;24.30;;;11.00;99.90;;;;;;5033388;28;20415;-73
2023/02/24 10:46:37;;;;;;;139.97;26.70;;;10.90;99.90;;;;;;5025018;28;20412;-73
2023/02/24 10:49:08;;;;;;;134.17;26.87;;;10.80;99.90;;;;;;5031848;28;20424;-73
2023/02/24 10:51:46;;;;;;;137.33;27.80;;;10.70;99.90;;;;;;5033028;28;20483;-73
2023/02/24 10:54:33;;;;;;;145.00;29.30;;;10.60;99.90;;;;;;5033131;28;20916;-73
2023/02/24 10:57:06;;;;;;;140.37;28.00;;;10.50;99.90;;;;;;5033157;28;20416;-75
2023/02/24 11:00:31;;;;;;;146.67;30.00;;;10.50;99.90;;;;;;5032670;28;20468;-73
2023/02/24 11:03:07;;;;;;;146.07;30.03;;;10.50;99.90;;;;;;5032631;28;20459;-73
2023/02/24 11:05:55;;;;;;;133.97;27.27;;;10.50;99.90;;;;;;5033254;28;20436;-73
2023/02/24 11:08:53;;;;;;;138.13;27.87;;;10.60;99.90;;;;;;5032756;28;20823;-74
2023/02/24 11:11:28;;;;;;;139.57;28.50;;;10.50;99.90;;;;;;5031804;28;20440;-74
2023/02/24 11:19:44;;;;;;;154.83;30.37;;;10.60;99.90;;;;;;5032255;28;20529;-73
2023/02/24 11:22:15;;;;;;;141.73;28.43;;;10.60;99.90;;;;;;5032888;28;20432;-73
2023/02/24 11:24:44;;;;;;;140.83;27.83;;;10.60;99.90;;;;;;5024833;28;20409;-74
2023/02/24 11:27:10;;;;;;;137.43;27.93;;;10.70;99.90;;;;;;5032599;28;20412;-73
2023/02/24 11:29:47;;;;;;;146.60;29.10;;;10.70;99.90;;;;;;5032103;28;20439;-73
2023/02/24 11:32:37;;;;;;;156.83;27.63;;;10.70;99.90;;;;;;5032295;28;20546;-76
2023/02/24 11:35:20;;;;;;;136.90;26.90;;;10.70;99.90;;;;;;5027693;28;20419;-73
2023/02/24 11:38:00;;;;;;;317.70;198.73;;;10.60;99.90;;;;;;5025030;28;20456;-72
2023/02/24 11:40:32;;;;;;;144.53;29.70;;;10.60;99.90;;;;;;5032102;28;20920;-73
2023/02/24 11:43:09;;;;;;;134.57;28.07;;;10.60;99.90;;;;;;5032392;28;20473;-74
2023/02/24 11:45:53;;;;;;;145.00;28.40;;;10.60;99.90;;;;;;5031888;28;20412;-74
2023/02/24 11:48:25;;;;;;;143.97;28.93;;;10.60;99.90;;;;;;5031936;28;20421;-73
2023/02/24 11:51:11;;;;;;;136.70;28.57;;;10.60;99.90;;;;;;5032197;28;20518;-73
2023/02/24 11:53:57;;;;;;;134.07;27.20;;;10.50;99.90;;;;;;5042924;28;20498;-73
2023/02/24 11:56:38;;;;;;;143.70;26.97;;;10.50;99.90;;;;;;5051410;28;20502;-73
2023/02/24 11:59:27;;;;;;;154.60;27.83;;;10.60;99.90;;;;;;5051399;28;20455;-74
2023/02/24 12:02:17;;;;;;;133.63;26.43;;;10.60;99.90;;;;;;5024420;28;20441;-74
2023/02/24 12:04:55;;;;;;;140.47;28.50;;;10.70;99.90;;;;;;5024025;28;20920;-75
2023/02/24 12:07:28;;;;;;;132.73;24.63;;;10.60;99.90;;;;;;5031709;28;20420;-74
2023/02/24 12:10:13;;;;;;;148.70;27.37;;;10.60;99.90;;;;;;5031480;28;21239;-73
2023/02/24 12:13:00;;;;;;;135.37;25.83;;;10.70;99.90;;;;;;5031461;28;20428;-75
2023/02/24 12:15:39;;;;;;;129.87;25.17;;;10.80;99.90;;;;;;5031152;28;20412;-74
2023/02/24 12:18:23;;;;;;;129.50;26.03;;;10.90;99.90;;;;;;5031519;28;20547;-73
2023/02/24 12:21:29;;;;;;;139.37;23.97;;;11.00;99.90;;;;;;5024501;28;20458;-73
2023/02/24 12:23:57;;;;;;;128.27;24.87;;;11.20;99.90;;;;;;5025373;28;20423;-73
2023/02/24 12:26:54;;;;;;;132.27;24.00;;;11.50;99.90;;;;;;5031363;28;20416;-73
2023/02/24 12:29:41;;;;;;;130.60;24.17;;;11.60;99.90;;;;;;5024608;28;20963;-74
2023/02/24 12:32:33;;;;;;;130.80;25.07;;;11.90;99.90;;;;;;5050959;28;20485;-74
2023/02/24 12:35:19;;;;;;;131.60;23.07;;;12.00;99.90;;;;;;5036890;28;20424;-73
2023/02/24 12:38:09;;;;;;;119.23;22.30;;;12.10;99.90;;;;;;5023501;28;20468;-73
2023/02/24 12:41:05;;;;;;;121.87;22.20;;;12.20;99.90;;;;;;5029656;28;20416;-73
2023/02/24 12:43:52;;;;;;;121.50;20.73;;;12.30;99.90;;;;;;5047765;28;20420;-74
2023/02/24 12:46:27;;;;;;;114.93;19.87;;;12.40;99.90;;;;;;5050088;28;20438;-74
2023/02/24 12:49:23;;;;;;;115.10;19.70;;;12.40;99.90;;;;;;5050606;28;20545;-74
2023/02/24 12:52:16;;;;;;;113.17;19.70;;;12.60;99.90;;;;;;5023838;28;20436;-76
2023/02/24 12:55:07;;;;;;;115.67;21.23;;;12.70;99.90;;;;;;5050299;28;20572;-74
2023/02/24 12:57:51;;;;;;;277.87;179.03;;;12.90;99.90;;;;;;5050310;28;20420;-74
2023/02/24 13:00:30;;;;;;;122.10;23.23;;;12.90;99.90;;;;;;5050819;28;20944;-73
2023/02/24 13:03:07;;;;;;;118.80;15.70;;;12.80;99.90;;;;;;5024654;28;20452;-73
2023/02/24 13:05:38;;;;;;;105.40;13.60;;;12.90;99.90;;;;;;5030773;28;20425;-73
2023/02/24 13:08:38;;;;;;;92.50;12.07;;;12.80;99.90;;;;;;5031054;28;21028;-73
2023/02/24 13:11:11;;;;;;;103.77;13.07;;;12.80;99.90;;;;;;5025612;28;20444;-73
2023/02/24 13:13:49;;;;;;;96.07;12.60;;;12.60;99.90;;;;;;5030791;28;20443;-74
2023/02/24 13:16:25;;;;;;;97.30;12.10;;;12.50;99.90;;;;;;5030937;28;20503;-75
2023/02/24 13:18:51;;;;;;;97.20;13.00;;;12.40;99.90;;;;;;5023347;28;20464;-74
2023/02/24 13:21:21;;;;;;;92.90;10.30;;;12.30;99.90;;;;;;5030877;28;20436;-76
2023/02/24 13:23:59;;;;;;;93.10;10.97;;;12.00;99.90;;;;;;5022896;28;20400;-73
2023/02/24 13:26:28;;;;;;;171.50;93.80;;;11.90;99.90;;;;;;5030676;28;20408;-74
2023/02/24 13:29:14;;;;;;;131.63;24.00;;;11.80;99.90;;;;;;5030305;28;20783;-73
2023/02/24 13:31:48;;;;;;;126.57;24.43;;;11.70;99.90;;;;;;5030248;28;20499;-75
2023/02/24 13:34:50;;;;;;;138.10;25.10;;;11.70;99.90;;;;;;5031298;28;20415;-74
2023/02/24 13:37:33;;;;;;;142.33;24.83;;;11.50;99.90;;;;;;4984893;28;20426;-75
2023/02/24 13:40:00;;;;;;;134.90;25.07;;;11.50;99.90;;;;;;5024802;28;20505;-73
2023/02/24 13:42:30;;;;;;;136.70;25.23;;;11.30;99.90;;;;;;5034322;28;20537;-73
2023/02/24 13:45:09;;;;;;;135.00;25.17;;;11.20;99.90;;;;;;5034340;28;20902;-74
2023/02/24 13:47:43;;;;;;;134.67;24.93;;;11.10;99.90;;;;;;5034209;28;20410;-73
2023/02/24 13:50:31;;;;;;;141.13;24.50;;;11.10;99.90;;;;;;5034310;28;20409;-73
2023/02/24 13:53:03;;;;;;;118.30;21.40;;;11.20;99.90;;;;;;5027600;28;20420;-74
2023/02/24 13:55:38;;;;;;;258.27;230.30;;;11.30;99.90;;;;;;5032171;28;20409;-74
2023/02/24 13:58:35;;;;;;;126.23;21.93;;;11.40;99.90;;;;;;5026819;28;20493;-72
2023/02/24 14:01:13;;;;;;;116.37;20.10;;;11.40;99.90;;;;;;5026894;28;20441;-74
2023/02/24 14:03:41;;;;;;;119.20;20.50;;;11.40;99.90;;;;;;5032752;28;20440;-73
2023/02/24 14:06:24;;;;;;;123.73;20.57;;;11.30;99.90;;;;;;5032617;28;20941;-73
2023/02/24 14:08:54;;;;;;;115.53;20.73;;;11.30;99.90;;;;;;5025177;28;20456;-74
2023/02/24 14:11:25;;;;;;;105.37;19.50;;;11.20;99.90;;;;;;5025980;28;20504;-74
2023/02/24 14:13:53;;;;;;;228.73;164.60;;;11.20;99.90;;;;;;5038282;28;20948;-75
2023/02/24 14:16:22;;;;;;;113.50;17.57;;;11.20;99.90;;;;;;5041808;28;20527;-74
2023/02/24 14:18:56;;;;;;;111.30;17.83;;;11.10;99.90;;;;;;5024721;28;20888;-74
2023/02/24 14:21:27;;;;;;;114.17;15.70;;;11.00;99.90;;;;;;5032660;28;20463;-75
2023/02/24 14:24:04;;;;;;;105.03;15.77;;;10.90;99.90;;;;;;5025428;28;20440;-74
2023/02/24 14:26:36;;;;;;;108.23;17.37;;;10.80;99.90;;;;;;5031111;28;20463;-73
2023/02/24 14:29:02;;;;;;;99.50;15.20;;;10.70;99.90;;;;;;5032546;28;20440;-72
2023/02/24 14:31:29;;;;;;;95.83;14.67;;;10.80;99.90;;;;;;5032272;28;20522;-73
2023/02/24 14:34:03;;;;;;;114.90;15.80;;;10.80;99.90;;;;;;5032541;28;20574;-73
2023/02/24 14:36:36;;;;;;;102.17;15.60;;;10.80;99.90;;;;;;5032280;28;20490;-73
2023/02/24 14:39:26;;;;;;;108.53;16.00;;;10.80;99.90;;;;;;5032196;28;20571;-73
2023/02/24 14:42:06;;;;;;;100.77;15.10;;;10.70;99.90;;;;;;5032421;28;20457;-75
2023/02/24 14:44:32;;;;;;;110.30;17.70;;;10.70;99.90;;;;;;5032190;28;20527;-70
2023/02/24 14:47:01;;;;;;;112.40;18.70;;;10.70;99.90;;;;;;5032042;28;20452;-74
2023/02/24 14:49:34;;;;;;;105.57;18.80;;;10.60;99.90;;;;;;5032206;28;20448;-73